createdAt,value
2018-10-21T00:02:08.888Z,116.90
2018-10-21T00:04:38.902Z,117.17
2018-10-21T00:07:09.199Z,388.37
2018-10-21T00:09:39.332Z,782.53
2018-10-21T00:12:09.301Z,1999.90
2018-10-21T00:14:39.102Z,279.23
2018-10-21T00:17:08.902Z,1467.80
2018-10-21T00:19:38.705Z,1375.10
2018-10-21T00:22:08.507Z,553.20
2018-10-21T00:24:38.345Z,1067.53
2018-10-21T00:27:08.341Z,863.77
2018-10-21T00:29:38.194Z,584.13
2018-10-21T00:32:08.153Z,190.20
2018-10-21T00:34:38.132Z,156.53
2018-10-21T00:37:07.994Z,211.27
2018-10-21T00:39:37.839Z,439.33
2018-10-21T00:42:08.019Z,688.23
2018-10-21T00:44:37.860Z,636.10
2018-10-21T00:47:07.770Z,1249.60
2018-10-21T00:49:37.566Z,774.53
2018-10-21T00:52:08.204Z,1999.13
2018-10-21T00:54:38.047Z,867.57
2018-10-21T00:57:08.115Z,747.53
2018-10-21T00:59:38.204Z,1999.90
2018-10-21T01:02:08.895Z,1641.30
2018-10-21T01:04:38.702Z,1949.20
2018-10-21T01:07:08.554Z,1721.70
2018-10-21T01:09:38.372Z,1004.47
2018-10-21T01:12:08.235Z,1999.90
2018-10-21T01:14:38.056Z,654.77
2018-10-21T01:17:07.934Z,1737.47
2018-10-21T01:19:37.723Z,1999.90
2018-10-21T01:22:07.594Z,1999.90
2018-10-21T01:24:37.543Z,1152.13
2018-10-21T01:27:07.783Z,1418.03
2018-10-21T01:29:37.717Z,1628.57
2018-10-21T01:32:07.525Z,1999.90
2018-10-21T01:34:37.313Z,1929.40
2018-10-21T01:37:07.905Z,1999.90
2018-10-21T01:40:49.758Z,1771.70
2018-10-21T01:43:21.037Z,1999.90
2018-10-21T01:45:50.802Z,1999.90
2018-10-21T01:48:22.192Z,1999.90
2018-10-21T01:50:51.982Z,1999.90
2018-10-21T01:53:22.227Z,1999.90
2018-10-21T01:55:52.026Z,1999.90
2018-10-21T01:58:21.771Z,1999.90
2018-10-21T02:00:51.584Z,1999.90
2018-10-21T02:03:21.372Z,1999.90
2018-10-21T02:05:51.231Z,1999.90
2018-10-21T02:08:21.025Z,1999.90
2018-10-21T02:10:50.874Z,1911.63
2018-10-21T02:13:20.646Z,1999.90
2018-10-21T02:15:50.652Z,1999.90
2018-10-21T02:18:20.468Z,1999.90
2018-10-21T02:20:50.269Z,1999.90
2018-10-21T02:23:20.065Z,1999.90
2018-10-21T02:25:50.039Z,1999.90
2018-10-21T02:28:19.918Z,1834.27
2018-10-21T02:30:49.893Z,1999.90
2018-10-21T02:33:19.802Z,1999.90
2018-10-21T02:35:49.709Z,1999.90
2018-10-21T02:38:19.609Z,1999.90
2018-10-21T02:41:46.829Z,1999.90
2018-10-21T02:44:18.700Z,787.87
2018-10-21T02:46:49.215Z,1083.70
2018-10-21T02:49:19.661Z,937.33
2018-10-21T02:51:55.447Z,1083.67
2018-10-21T02:54:30.362Z,669.87
2018-10-21T02:57:00.373Z,923.03
2018-10-21T02:59:30.334Z,1365.63
2018-10-21T03:02:00.373Z,1493.53
2018-10-21T03:04:30.230Z,501.33
2018-10-21T03:07:00.242Z,425.77
2018-10-21T03:09:30.555Z,578.43
2018-10-21T03:12:00.444Z,927.13
2018-10-21T03:14:30.232Z,575.50
2018-10-21T03:17:00.032Z,608.97
2018-10-21T03:19:29.806Z,387.93
2018-10-21T03:21:59.730Z,355.23
2018-10-21T03:24:29.616Z,701.10
2018-10-21T03:26:59.452Z,469.53
2018-10-21T03:29:29.225Z,656.73
2018-10-21T03:31:59.020Z,319.00
2018-10-21T03:34:28.916Z,261.33
2018-10-21T03:36:58.914Z,411.97
2018-10-21T03:39:28.732Z,137.03
2018-10-21T03:41:58.492Z,700.53
2018-10-21T03:44:28.276Z,282.47
2018-10-21T03:46:58.120Z,667.17
2018-10-21T03:49:27.922Z,644.53
2018-10-21T03:51:57.781Z,603.80
2018-10-21T03:54:27.724Z,1628.97
2018-10-21T03:56:57.787Z,1415.83
2018-10-21T03:59:27.622Z,896.57
2018-10-21T04:01:57.397Z,310.07
2018-10-21T04:04:27.236Z,1376.20
2018-10-21T04:06:57.078Z,1411.40
2018-10-21T04:09:26.954Z,1999.90
2018-10-21T04:11:56.759Z,1999.90
2018-10-21T04:14:26.624Z,1999.90
2018-10-21T04:16:56.546Z,1999.90
2018-10-21T04:19:26.376Z,1999.90
2018-10-21T04:21:56.188Z,1999.90
2018-10-21T04:24:26.246Z,1122.27
2018-10-21T04:26:56.106Z,1442.60
2018-10-21T04:29:26.043Z,1879.23
2018-10-21T04:31:55.832Z,1017.47
2018-10-21T04:34:25.665Z,1182.00
2018-10-21T04:37:09.300Z,1908.77
2018-10-21T04:39:55.863Z,1605.37
2018-10-21T04:42:26.366Z,1432.37
2018-10-21T04:44:56.154Z,1550.83
2018-10-21T04:47:25.967Z,1285.13
2018-10-21T04:49:56.019Z,748.90
2018-10-21T04:52:25.955Z,910.67
2018-10-21T04:54:57.451Z,621.97
2018-10-21T04:57:27.204Z,1745.23
2018-10-21T04:59:57.085Z,1355.40
2018-10-21T05:02:27.139Z,1999.90
2018-10-21T05:04:56.910Z,1999.90
2018-10-21T05:07:26.955Z,1742.20
2018-10-21T05:09:56.991Z,1232.37
2018-10-21T05:12:26.998Z,1689.73
2018-10-21T05:14:56.780Z,1224.00
2018-10-21T05:17:26.549Z,1860.37
2018-10-21T05:19:56.498Z,1061.17
2018-10-21T05:22:26.270Z,1999.90
2018-10-21T05:24:56.063Z,1855.87
2018-10-21T05:27:25.908Z,1999.90
2018-10-21T05:29:55.689Z,1999.90
2018-10-21T05:32:25.642Z,1779.80
2018-10-21T05:34:55.374Z,923.60
2018-10-21T05:37:25.198Z,1820.50
2018-10-21T05:39:55.073Z,1961.63
2018-10-21T05:42:25.116Z,1625.70
2018-10-21T05:44:54.978Z,1633.03
2018-10-21T05:47:25.127Z,1802.60
2018-10-21T05:49:54.939Z,1999.90
2018-10-21T05:52:24.741Z,1807.53
2018-10-21T05:54:54.613Z,1894.70
2018-10-21T05:57:24.400Z,1999.90
2018-10-21T05:59:54.187Z,1316.10
2018-10-21T06:02:23.975Z,1348.03
2018-10-21T06:04:54.645Z,1562.67
2018-10-21T06:07:24.965Z,1322.67
2018-10-21T06:09:54.834Z,460.50
2018-10-21T06:12:24.639Z,966.20
2018-10-21T06:14:54.475Z,671.93
2018-10-21T06:17:27.733Z,552.30
2018-10-21T06:20:45.937Z,817.00
2018-10-21T06:23:15.729Z,904.80
2018-10-21T06:25:45.540Z,643.60
2018-10-21T06:28:15.343Z,1926.80
2018-10-21T06:30:45.106Z,1200.20
2018-10-21T06:33:15.109Z,1433.83
2018-10-21T06:35:44.973Z,608.67
2018-10-21T06:38:14.939Z,576.50
2018-10-21T06:40:44.701Z,721.43
2018-10-21T06:43:14.585Z,621.80
2018-10-21T06:45:44.463Z,1040.07
2018-10-21T06:48:14.445Z,1031.37
2018-10-21T06:50:44.363Z,409.10
2018-10-21T06:53:14.183Z,650.70
2018-10-21T06:55:44.282Z,451.57
2018-10-21T06:58:14.100Z,529.27
2018-10-21T07:00:43.922Z,427.93
2018-10-21T07:03:13.685Z,369.20
2018-10-21T07:06:20.081Z,344.40
2018-10-21T07:08:50.988Z,373.20
2018-10-21T07:11:20.747Z,455.37
2018-10-21T07:13:50.624Z,349.07
2018-10-21T07:16:20.579Z,405.77
2018-10-21T07:18:51.194Z,374.53
2018-10-21T07:21:21.048Z,324.23
2018-10-21T07:23:50.874Z,400.60
2018-10-21T07:26:20.966Z,347.23
2018-10-21T07:28:51.588Z,393.57
2018-10-21T07:31:21.353Z,365.20
2018-10-21T07:33:51.156Z,391.33
2018-10-21T07:36:20.974Z,328.70
2018-10-21T07:38:50.907Z,346.23
2018-10-21T07:41:20.732Z,417.93
2018-10-21T07:43:50.534Z,382.93
2018-10-21T07:46:20.330Z,327.83
2018-10-21T07:48:50.250Z,339.50
2018-10-21T07:51:20.119Z,338.40
2018-10-21T07:53:49.902Z,317.33
2018-10-21T07:56:19.734Z,303.57
2018-10-21T07:58:49.562Z,310.73
2018-10-21T08:04:55.393Z,282.13
2018-10-21T08:07:42.045Z,278.23
2018-10-21T08:10:11.948Z,265.90
2018-10-21T08:12:41.876Z,250.33
2018-10-21T08:15:11.675Z,263.53
2018-10-21T08:17:41.593Z,258.30
2018-10-21T08:20:11.415Z,251.30
2018-10-21T08:22:41.189Z,251.13
2018-10-21T08:25:10.973Z,238.77
2018-10-21T08:27:40.907Z,233.77
2018-10-21T08:30:10.691Z,230.67
2018-10-21T08:32:40.480Z,223.37
2018-10-21T08:35:10.251Z,250.00
2018-10-21T08:37:40.111Z,248.47
2018-10-21T08:40:10.064Z,243.27
2018-10-21T08:42:40.023Z,230.30
2018-10-21T08:45:10.085Z,235.93
2018-10-21T08:47:40.101Z,228.97
2018-10-21T08:50:10.961Z,232.00
2018-10-21T08:52:40.791Z,229.07
2018-10-21T08:55:11.532Z,211.90
2018-10-21T08:57:41.841Z,201.90
2018-10-21T09:00:17.144Z,198.63
2018-10-21T09:02:47.280Z,190.50
2018-10-21T09:05:18.822Z,184.43
2018-10-21T09:07:48.704Z,174.20
2018-10-21T09:10:18.894Z,181.33
2018-10-21T09:12:49.127Z,173.93
2018-10-21T09:15:20.363Z,169.77
2018-10-21T09:17:50.317Z,162.07
2018-10-21T09:20:20.290Z,151.37
2018-10-21T09:22:50.124Z,157.83
2018-10-21T09:29:43.306Z,140.60
2018-10-21T09:32:13.143Z,150.07
2018-10-21T09:34:43.052Z,147.87
2018-10-21T09:37:12.941Z,138.43
2018-10-21T09:39:43.948Z,138.50
2018-10-21T09:42:13.975Z,136.00
2018-10-21T09:44:44.022Z,134.13
2018-10-21T09:47:14.185Z,129.83
2018-10-21T09:49:44.088Z,119.00
2018-10-21T09:52:14.055Z,131.67
2018-10-21T09:54:44.263Z,122.80
2018-10-21T09:57:14.055Z,117.93
2018-10-21T09:59:43.905Z,123.77
2018-10-21T10:02:18.951Z,126.33
2018-10-21T10:04:48.852Z,132.80
2018-10-21T10:07:18.744Z,122.07
2018-10-21T10:09:48.764Z,118.50
2018-10-21T10:12:18.671Z,115.40
2018-10-21T10:14:48.489Z,108.87
2018-10-21T10:17:18.336Z,113.93
2018-10-21T10:19:48.234Z,111.43
2018-10-21T10:22:18.182Z,107.57
2018-10-21T10:24:48.150Z,101.50
2018-10-21T10:27:17.944Z,104.50
2018-10-21T10:29:47.904Z,101.13
2018-10-21T10:32:17.778Z,92.50
2018-10-21T10:34:48.250Z,92.90
2018-10-21T10:37:18.096Z,96.10
2018-10-21T10:39:48.140Z,89.30
2018-10-21T10:42:18.020Z,84.73
2018-10-21T10:44:48.092Z,82.73
2018-10-21T10:50:54.022Z,91.80
2018-10-21T10:53:23.870Z,85.00
2018-10-21T10:55:53.815Z,77.30
2018-10-21T10:58:23.647Z,82.60
2018-10-21T11:00:53.492Z,79.03
2018-10-21T11:03:23.509Z,82.23
2018-10-21T11:05:53.342Z,76.30
2018-10-21T11:08:23.338Z,76.00
2018-10-21T11:10:53.150Z,76.53
2018-10-21T11:13:23.035Z,74.17
2018-10-21T11:15:52.955Z,77.97
2018-10-21T11:18:22.803Z,71.37
2018-10-21T11:20:52.643Z,70.83
2018-10-21T11:23:22.776Z,68.27
2018-10-21T11:25:52.575Z,66.40
2018-10-21T11:28:22.584Z,69.97
2018-10-21T11:30:57.233Z,68.77
2018-10-21T11:33:27.247Z,56.47
2018-10-21T11:35:57.365Z,69.40
2018-10-21T11:38:28.066Z,69.90
2018-10-21T11:40:58.044Z,64.43
2018-10-21T11:43:27.876Z,64.13
2018-10-21T11:45:57.728Z,58.53
2018-10-21T11:48:27.718Z,58.03
2018-10-21T11:50:57.495Z,60.77
2018-10-21T11:53:27.353Z,60.17
2018-10-21T11:55:57.129Z,60.70
2018-10-21T11:58:26.939Z,56.80
2018-10-21T12:00:56.802Z,54.67
2018-10-21T12:03:27.129Z,56.73
2018-10-21T12:05:56.917Z,51.80
2018-10-21T12:08:26.701Z,47.33
2018-10-21T12:10:56.489Z,42.17
2018-10-21T12:13:26.615Z,42.83
2018-10-21T12:15:56.452Z,41.93
2018-10-21T12:18:26.662Z,42.13
2018-10-21T12:20:56.447Z,43.27
2018-10-21T12:23:26.273Z,39.47
2018-10-21T12:25:56.301Z,39.83
2018-10-21T12:28:26.096Z,40.00
2018-10-21T12:30:55.875Z,39.03
2018-10-21T12:33:25.933Z,35.60
2018-10-21T12:35:55.731Z,39.23
2018-10-21T12:38:25.980Z,32.13
2018-10-21T12:40:55.797Z,34.23
2018-10-21T12:43:25.781Z,33.07
2018-10-21T12:45:55.635Z,40.83
2018-10-21T12:48:25.652Z,33.30
2018-10-21T12:50:55.571Z,34.47
2018-10-21T12:53:25.443Z,35.03
2018-10-21T12:55:55.197Z,30.30
2018-10-21T12:58:25.004Z,31.17
2018-10-21T13:00:54.816Z,31.70
2018-10-21T13:03:24.737Z,33.00
2018-10-21T13:05:54.537Z,30.30
2018-10-21T13:08:24.337Z,28.33
2018-10-21T13:10:54.373Z,25.60
2018-10-21T13:13:24.268Z,29.27
2018-10-21T13:15:54.212Z,25.27
2018-10-21T13:18:24.029Z,29.07
2018-10-21T13:20:53.847Z,28.47
2018-10-21T13:23:23.658Z,23.93
2018-10-21T13:25:53.596Z,25.97
2018-10-21T13:28:23.514Z,28.27
2018-10-21T13:30:53.360Z,25.77
2018-10-21T13:33:23.121Z,23.30
2018-10-21T13:35:52.928Z,26.20
2018-10-21T13:38:22.788Z,25.00
2018-10-21T13:40:52.604Z,24.20
2018-10-21T13:43:22.401Z,26.43
2018-10-21T13:45:52.190Z,27.07
2018-10-21T13:48:22.176Z,25.70
2018-10-21T13:50:51.961Z,25.57
2018-10-21T13:53:21.705Z,25.90
2018-10-21T13:55:51.702Z,29.07
2018-10-21T13:58:21.516Z,29.10
2018-10-21T14:00:51.365Z,30.00
2018-10-21T14:03:21.316Z,24.57
2018-10-21T14:05:51.072Z,24.50
2018-10-21T14:08:21.270Z,25.57
2018-10-21T14:10:51.279Z,25.10
2018-10-21T14:13:21.100Z,22.77
2018-10-21T14:15:50.907Z,25.80
2018-10-21T14:18:21.167Z,25.63
2018-10-21T14:20:50.967Z,23.37
2018-10-21T14:23:20.881Z,26.97
2018-10-21T14:25:50.648Z,26.63
2018-10-21T14:28:20.454Z,24.37
2018-10-21T14:30:50.332Z,24.47
2018-10-21T14:33:20.318Z,24.77
2018-10-21T14:35:50.359Z,23.87
2018-10-21T14:38:20.249Z,24.93
2018-10-21T14:40:50.212Z,23.90
2018-10-21T14:43:20.000Z,23.17
2018-10-21T14:45:49.958Z,25.60
2018-10-21T14:48:19.855Z,23.70
2018-10-21T14:50:49.654Z,20.63
2018-10-21T14:53:19.504Z,21.57
2018-10-21T14:55:49.272Z,19.97
2018-10-21T14:58:19.119Z,23.40
2018-10-21T15:00:49.176Z,23.87
2018-10-21T15:03:19.049Z,21.77
2018-10-21T15:05:49.030Z,23.33
2018-10-21T15:08:18.931Z,21.07
2018-10-21T15:10:49.063Z,22.33
2018-10-21T15:13:18.877Z,21.37
2018-10-21T15:15:48.760Z,22.80
2018-10-21T15:18:18.713Z,20.10
2018-10-21T15:20:48.686Z,23.77
2018-10-21T15:23:18.513Z,22.13
2018-10-21T15:25:48.531Z,22.60
2018-10-21T15:28:18.368Z,23.43
2018-10-21T15:30:48.352Z,20.93
2018-10-21T15:33:18.130Z,20.77
2018-10-21T15:35:48.211Z,24.07
2018-10-21T15:38:18.291Z,20.43
2018-10-21T15:40:48.157Z,21.00
2018-10-21T15:43:18.347Z,21.70
2018-10-21T15:45:48.279Z,21.43
2018-10-21T15:48:18.372Z,22.60
2018-10-21T15:50:48.159Z,23.60
2018-10-21T15:53:17.982Z,24.23
2018-10-21T15:55:47.781Z,22.37
2018-10-21T15:58:17.673Z,20.60
2018-10-21T16:00:47.674Z,23.80
2018-10-21T16:03:17.483Z,23.40
2018-10-21T16:05:47.301Z,21.50
2018-10-21T16:08:17.128Z,19.63
2018-10-21T16:10:47.325Z,21.73
2018-10-21T16:13:17.141Z,21.40
2018-10-21T16:15:47.035Z,19.93
2018-10-21T16:18:16.951Z,18.27
2018-10-21T16:20:46.741Z,20.50
2018-10-21T16:23:16.465Z,21.47
2018-10-21T16:25:46.352Z,18.50
2018-10-21T16:28:16.343Z,17.83
2018-10-21T16:30:46.282Z,18.77
2018-10-21T16:33:16.081Z,20.77
2018-10-21T16:35:45.846Z,19.70
2018-10-21T16:38:15.801Z,20.53
2018-10-21T16:40:45.784Z,18.93
2018-10-21T16:43:15.633Z,23.77
2018-10-21T16:45:45.431Z,22.60
2018-10-21T16:48:15.322Z,18.23
2018-10-21T16:50:45.331Z,15.00
2018-10-21T16:53:15.336Z,15.23
2018-10-21T16:55:45.267Z,16.43
2018-10-21T16:58:15.037Z,18.83
2018-10-21T17:01:41.387Z,20.77
2018-10-21T17:04:11.160Z,17.90
2018-10-21T17:06:40.945Z,15.57
2018-10-21T17:09:13.140Z,20.77
2018-10-21T17:11:45.303Z,16.70
2018-10-21T17:14:15.161Z,13.83
2018-10-21T17:16:44.961Z,14.40
2018-10-21T17:19:14.843Z,14.67
2018-10-21T17:21:44.793Z,15.70
2018-10-21T17:24:14.821Z,13.07
2018-10-21T17:26:45.109Z,16.93
2018-10-21T17:29:15.000Z,13.40
2018-10-21T17:31:44.773Z,13.13
2018-10-21T17:34:14.593Z,13.97
2018-10-21T17:36:44.488Z,12.23
2018-10-21T17:39:15.611Z,13.77
2018-10-21T17:41:45.384Z,11.63
2018-10-21T17:44:15.149Z,13.00
2018-10-21T17:46:45.008Z,11.07
2018-10-21T17:49:14.953Z,12.70
2018-10-21T17:51:44.911Z,11.00
2018-10-21T17:54:14.690Z,11.47
2018-10-21T17:56:49.569Z,14.37
2018-10-21T17:59:19.506Z,15.87
2018-10-21T18:01:49.262Z,13.37
2018-10-21T18:04:19.015Z,12.90
2018-10-21T18:06:48.809Z,13.00
2018-10-21T18:09:18.743Z,12.73
2018-10-21T18:11:48.520Z,12.53
2018-10-21T18:14:18.285Z,12.50
2018-10-21T18:16:48.039Z,12.97
2018-10-21T18:19:17.913Z,13.93
2018-10-21T18:21:47.711Z,14.13
2018-10-21T18:24:17.773Z,13.90
2018-10-21T18:26:47.561Z,14.13
2018-10-21T18:29:17.488Z,14.63
2018-10-21T18:31:47.311Z,13.20
2018-10-21T18:34:17.198Z,16.47
2018-10-21T18:36:47.098Z,12.57
2018-10-21T18:39:16.838Z,14.67
2018-10-21T18:41:46.593Z,13.97
2018-10-21T18:44:16.470Z,14.80
2018-10-21T18:46:46.306Z,14.77
2018-10-21T18:49:16.240Z,13.70
2018-10-21T18:51:46.200Z,14.17
2018-10-21T18:54:16.015Z,16.13
2018-10-21T18:56:45.795Z,18.93
2018-10-21T18:59:15.591Z,17.20
2018-10-21T19:01:45.359Z,13.13
2018-10-21T19:04:15.137Z,15.60
2018-10-21T19:06:45.084Z,12.73
2018-10-21T19:09:14.856Z,12.77
2018-10-21T19:11:44.654Z,13.43
2018-10-21T19:14:14.459Z,14.00
2018-10-21T19:16:44.204Z,15.63
2018-10-21T19:19:14.197Z,13.93
2018-10-21T19:21:44.158Z,12.77
2018-10-21T19:24:13.902Z,13.60
2018-10-21T19:26:43.977Z,14.27
2018-10-21T19:29:13.959Z,13.97
2018-10-21T19:31:43.758Z,11.80
2018-10-21T19:34:13.815Z,13.67
2018-10-21T19:36:43.735Z,13.00
2018-10-21T19:39:14.162Z,12.00
2018-10-21T19:41:43.932Z,12.97
2018-10-21T19:44:13.754Z,14.80
2018-10-21T19:46:43.538Z,14.17
2018-10-21T19:49:13.374Z,12.70
2018-10-21T19:51:43.281Z,11.03
2018-10-21T19:54:13.105Z,11.63
2018-10-21T19:56:42.926Z,11.20
2018-10-21T19:59:12.780Z,11.63
2018-10-21T20:01:42.629Z,11.77
2018-10-21T20:04:12.591Z,11.73
2018-10-21T20:06:42.537Z,14.70
2018-10-21T20:09:12.331Z,15.77
2018-10-21T20:11:42.250Z,14.37
2018-10-21T20:14:12.003Z,13.23
2018-10-21T20:16:41.831Z,12.60
2018-10-21T20:19:11.653Z,11.67
2018-10-21T20:21:41.570Z,12.60
2018-10-21T20:24:11.385Z,14.63
2018-10-21T20:26:41.207Z,10.77
2018-10-21T20:29:10.992Z,13.20
2018-10-21T20:31:40.790Z,14.67
2018-10-21T20:34:10.694Z,14.70
2018-10-21T20:36:40.646Z,13.70
2018-10-21T20:39:11.023Z,12.73
2018-10-21T20:41:40.850Z,12.27
2018-10-21T20:44:10.597Z,12.57
2018-10-21T20:46:40.365Z,14.70
2018-10-21T20:49:10.125Z,14.97
2018-10-21T20:51:40.094Z,14.37
2018-10-21T20:54:09.887Z,14.63
2018-10-21T20:56:39.832Z,13.77
2018-10-21T20:59:09.605Z,15.60
2018-10-21T21:01:39.343Z,13.90
2018-10-21T21:04:09.171Z,13.47
2018-10-21T21:06:39.109Z,14.20
2018-10-21T21:09:09.952Z,13.67
2018-10-21T21:11:39.698Z,14.97
2018-10-21T21:14:09.517Z,12.53
2018-10-21T21:16:39.276Z,13.80
2018-10-21T21:19:09.087Z,14.17
2018-10-21T21:21:38.990Z,14.53
2018-10-21T21:27:45.041Z,13.90
2018-10-21T21:30:14.838Z,15.83
2018-10-21T21:32:44.749Z,16.47
2018-10-21T21:35:14.529Z,13.93
2018-10-21T21:37:44.303Z,13.83
2018-10-21T21:40:14.244Z,12.97
2018-10-21T21:42:44.119Z,16.87
2018-10-21T21:45:13.881Z,13.27
2018-10-21T21:47:43.701Z,14.20
2018-10-21T21:50:13.494Z,14.83
2018-10-21T21:52:43.405Z,12.90
2018-10-21T21:55:13.149Z,13.80
2018-10-21T21:57:42.900Z,16.60
2018-10-21T22:00:15.129Z,16.50
2018-10-21T22:02:45.709Z,12.77
2018-10-21T22:05:15.500Z,12.67
2018-10-21T22:07:45.253Z,13.10
2018-10-21T22:10:15.272Z,13.10
2018-10-21T22:12:45.536Z,14.37
2018-10-21T22:15:15.465Z,14.90
2018-10-21T22:17:45.373Z,13.43
2018-10-21T22:20:15.205Z,11.27
2018-10-21T22:22:45.109Z,11.67
2018-10-21T22:25:15.041Z,12.97
2018-10-21T22:27:44.864Z,10.83
2018-10-21T22:30:14.783Z,12.23
2018-10-21T22:32:44.650Z,11.87
2018-10-21T22:35:14.482Z,11.93
2018-10-21T22:37:44.389Z,11.43
2018-10-21T22:40:14.395Z,11.70
2018-10-21T22:42:44.287Z,11.07
2018-10-21T22:45:14.131Z,12.77
2018-10-21T22:47:43.936Z,12.53
2018-10-21T22:50:13.850Z,10.70
2018-10-21T22:52:44.070Z,14.10
2018-10-21T22:55:13.962Z,13.50
2018-10-21T22:57:43.831Z,12.83
2018-10-21T23:00:14.056Z,15.37
2018-10-21T23:02:44.196Z,13.30
2018-10-21T23:05:13.952Z,14.13
2018-10-21T23:07:43.639Z,16.30
2018-10-21T23:10:13.448Z,13.67
2018-10-21T23:12:43.548Z,13.37
2018-10-21T23:15:13.638Z,11.43
2018-10-21T23:17:43.367Z,11.87
2018-10-21T23:20:13.114Z,12.03
2018-10-21T23:22:42.839Z,13.47
2018-10-21T23:25:12.600Z,12.73
2018-10-21T23:27:42.344Z,15.10
2018-10-21T23:30:12.072Z,14.60
2018-10-21T23:32:42.005Z,13.70
2018-10-21T23:35:11.741Z,15.17
2018-10-21T23:37:41.477Z,10.70
2018-10-21T23:40:11.247Z,12.60
2018-10-21T23:42:41.136Z,10.13
2018-10-21T23:45:10.891Z,11.37
2018-10-21T23:47:41.189Z,11.37
2018-10-21T23:50:10.937Z,12.00
2018-10-21T23:52:40.629Z,11.43
2018-10-21T23:55:10.343Z,11.23
2018-10-21T23:57:40.067Z,10.70
